createdAt,value
2023-05-14T00:01:38.235Z,101285.55
2023-05-14T00:04:07.641Z,101288.88
2023-05-14T00:06:36.753Z,101287.27
2023-05-14T00:09:06.642Z,101285.98
2023-05-14T00:11:35.805Z,101286.67
2023-05-14T00:14:05.066Z,101286.94
2023-05-14T00:16:34.182Z,101288.02
2023-05-14T00:19:03.379Z,101289.64
2023-05-14T00:21:32.609Z,101288.58
2023-05-14T00:24:01.740Z,101291.45
2023-05-14T00:26:30.620Z,101292.14
2023-05-14T00:28:59.830Z,101288.29
2023-05-14T00:31:28.990Z,101285.22
2023-05-14T00:33:58.696Z,101280.73
2023-05-14T00:36:27.799Z,101281.31
2023-05-14T00:38:56.944Z,101274.69
2023-05-14T00:41:26.079Z,101269.56
2023-05-14T00:43:55.227Z,101264.97
2023-05-14T00:46:24.514Z,101264.52
2023-05-14T00:48:54.373Z,101261.02
2023-05-14T00:51:23.845Z,101261.36
2023-05-14T00:53:54.341Z,101261.55
2023-05-14T00:56:24.041Z,101259.88
2023-05-14T00:58:53.402Z,101261.04
2023-05-14T01:01:22.454Z,101263.39
2023-05-14T01:03:53.707Z,101254.41
2023-05-14T01:06:34.279Z,101257.17
2023-05-14T01:09:19.470Z,101258.26
2023-05-14T01:12:12.524Z,101249.81
2023-05-14T01:15:12.822Z,101253.20
2023-05-14T01:18:14.062Z,101253.16
2023-05-14T01:20:44.740Z,101255.84
2023-05-14T01:23:13.941Z,101264.01
2023-05-14T01:25:43.284Z,101267.17
2023-05-14T01:28:21.352Z,101265.44
2023-05-14T01:31:07.260Z,101263.23
2023-05-14T01:33:37.468Z,101260.22
2023-05-14T01:36:07.304Z,101258.58
2023-05-14T01:38:38.015Z,101255.71
2023-05-14T01:41:07.876Z,101258.20
2023-05-14T01:43:38.287Z,101259.08
2023-05-14T01:46:07.414Z,101264.06
2023-05-14T01:48:37.993Z,101266.48
2023-05-14T01:51:07.185Z,101264.35
2023-05-14T01:53:36.477Z,101266.14
2023-05-14T01:56:05.972Z,101266.61
2023-05-14T01:58:35.266Z,101266.73
2023-05-14T02:01:04.448Z,101266.80
2023-05-14T02:03:33.681Z,101263.54
2023-05-14T02:06:02.922Z,101271.11
2023-05-14T02:08:32.497Z,101273.08
2023-05-14T02:11:01.905Z,101279.95
2023-05-14T02:13:31.331Z,101278.14
2023-05-14T02:16:00.656Z,101277.17
2023-05-14T02:18:30.057Z,101277.58
2023-05-14T02:20:59.320Z,101276.02
2023-05-14T02:23:40.416Z,101276.92
2023-05-14T02:26:11.575Z,101275.78
2023-05-14T02:28:40.412Z,101274.07
2023-05-14T02:31:09.734Z,101273.27
2023-05-14T02:33:39.059Z,101268.21
2023-05-14T02:36:08.735Z,101268.27
2023-05-14T02:38:38.254Z,101269.77
2023-05-14T02:41:07.355Z,101274.66
2023-05-14T02:43:36.658Z,101279.32
2023-05-14T02:46:05.827Z,101276.59
2023-05-14T02:48:35.220Z,101276.56
2023-05-14T02:51:04.866Z,101275.61
2023-05-14T02:53:34.132Z,101273.02
2023-05-14T02:56:03.716Z,101269.96
2023-05-14T02:58:33.070Z,101265.35
2023-05-14T03:01:02.311Z,101263.11
2023-05-14T03:03:32.212Z,101263.86
2023-05-14T03:06:02.156Z,101266.30
2023-05-14T03:08:31.562Z,101268.09
2023-05-14T03:11:00.839Z,101269.11
2023-05-14T03:13:30.504Z,101268.06
2023-05-14T03:15:59.771Z,101267.30
2023-05-14T03:18:31.111Z,101270.14
2023-05-14T03:21:01.145Z,101276.63
2023-05-14T03:23:32.191Z,101282.59
2023-05-14T03:26:02.430Z,101286.48
2023-05-14T03:28:31.526Z,101294.58
2023-05-14T03:31:02.262Z,101303.22
2023-05-14T03:33:32.587Z,101302.36
2023-05-14T03:36:01.690Z,101301.48
2023-05-14T03:38:30.705Z,101301.28
2023-05-14T03:41:00.071Z,101298.67
2023-05-14T03:43:29.127Z,101298.56
2023-05-14T03:45:58.550Z,101297.31
2023-05-14T03:48:27.879Z,101298.82
2023-05-14T03:50:57.371Z,101299.95
2023-05-14T03:53:26.880Z,101299.57
2023-05-14T03:55:57.101Z,101300.36
2023-05-14T03:58:26.397Z,101301.91
2023-05-14T04:00:55.717Z,101302.65
2023-05-14T04:03:24.959Z,101308.65
2023-05-14T04:05:55.330Z,101313.68
2023-05-14T04:08:24.482Z,101317.56
2023-05-14T04:10:53.610Z,101322.86
2023-05-14T04:13:25.847Z,101324.66
2023-05-14T04:15:55.015Z,101321.73
2023-05-14T04:18:24.773Z,101323.39
2023-05-14T04:20:54.621Z,101325.73
2023-05-14T04:23:23.915Z,101327.85
2023-05-14T04:25:53.031Z,101323.23
2023-05-14T04:28:22.230Z,101321.02
2023-05-14T04:30:51.348Z,101324.06
2023-05-14T04:33:21.015Z,101321.71
2023-05-14T04:35:50.145Z,101322.16
2023-05-14T04:38:20.113Z,101327.15
2023-05-14T04:40:49.391Z,101330.31
2023-05-14T04:43:18.941Z,101333.87
2023-05-14T04:45:48.327Z,101334.96
2023-05-14T04:48:17.508Z,101338.46
2023-05-14T04:50:46.837Z,101336.56
2023-05-14T04:53:16.278Z,101344.24
2023-05-14T04:55:45.579Z,101338.48
2023-05-14T04:58:14.494Z,101345.17
2023-05-14T05:00:43.924Z,101331.02
2023-05-14T05:03:13.249Z,101331.32
2023-05-14T05:05:42.448Z,101329.84
2023-05-14T05:08:11.685Z,101334.58
2023-05-14T05:10:40.763Z,101338.45
2023-05-14T05:13:09.836Z,101337.73
2023-05-14T05:15:38.976Z,101335.88
2023-05-14T05:18:08.151Z,101342.06
2023-05-14T05:20:37.382Z,101341.20
2023-05-14T05:23:06.334Z,101334.36
2023-05-14T05:25:35.330Z,101340.23
2023-05-14T05:28:04.520Z,101339.71
2023-05-14T05:30:33.473Z,101335.98
2023-05-14T05:33:02.746Z,101337.00
2023-05-14T05:35:31.725Z,101337.25
2023-05-14T05:38:01.688Z,101332.52
2023-05-14T05:40:30.981Z,101336.36
2023-05-14T05:42:59.893Z,101337.33
2023-05-14T05:45:29.055Z,101336.11
2023-05-14T05:47:58.196Z,101335.27
2023-05-14T05:50:27.432Z,101334.02
2023-05-14T05:52:56.466Z,101333.17
2023-05-14T05:55:26.289Z,101332.83
2023-05-14T05:57:55.398Z,101331.47
2023-05-14T06:00:24.895Z,101330.51
2023-05-14T06:02:54.718Z,101330.63
2023-05-14T06:05:24.057Z,101331.75
2023-05-14T06:07:56.158Z,101330.77
2023-05-14T06:10:25.270Z,101327.90
2023-05-14T06:12:54.891Z,101327.02
2023-05-14T06:15:23.942Z,101322.11
2023-05-14T06:17:53.042Z,101325.01
2023-05-14T06:20:22.222Z,101321.75
2023-05-14T06:22:51.284Z,101321.40
2023-05-14T06:25:20.582Z,101317.16
2023-05-14T06:27:49.797Z,101316.25
2023-05-14T06:30:18.925Z,101309.80
2023-05-14T06:32:48.183Z,101315.30
2023-05-14T06:35:17.208Z,101314.78
2023-05-14T06:37:46.348Z,101310.10
2023-05-14T06:40:18.225Z,101312.27
2023-05-14T06:42:47.207Z,101308.47
2023-05-14T06:45:16.233Z,101309.80
2023-05-14T06:47:45.279Z,101311.39
2023-05-14T06:50:14.418Z,101308.09
2023-05-14T06:52:45.111Z,101303.25
2023-05-14T06:55:14.484Z,101299.79
2023-05-14T06:57:43.883Z,101298.05
2023-05-14T07:00:14.571Z,101297.30
2023-05-14T07:02:43.542Z,101293.42
2023-05-14T07:05:13.714Z,101295.34
2023-05-14T07:07:42.701Z,101297.65
2023-05-14T07:10:12.161Z,101297.52
2023-05-14T07:12:41.128Z,101299.68
2023-05-14T07:15:10.638Z,101297.13
2023-05-14T07:17:39.832Z,101296.19
2023-05-14T07:20:09.894Z,101293.50
2023-05-14T07:22:38.976Z,101291.34
2023-05-14T07:25:08.492Z,101291.23
2023-05-14T07:27:37.161Z,101285.98
2023-05-14T07:30:07.633Z,101287.73
2023-05-14T07:32:36.532Z,101285.00
2023-05-14T07:35:06.421Z,101277.55
2023-05-14T07:37:35.424Z,101274.98
2023-05-14T07:40:05.064Z,101273.23
2023-05-14T07:42:36.951Z,101271.66
2023-05-14T07:45:07.253Z,101268.52
2023-05-14T07:47:36.618Z,101268.27
2023-05-14T07:50:06.580Z,101262.55
2023-05-14T07:52:36.038Z,101263.25
2023-05-14T07:55:05.311Z,101261.09
2023-05-14T07:57:34.401Z,101266.31
2023-05-14T08:00:04.991Z,101259.45
2023-05-14T08:02:41.187Z,101258.00
2023-05-14T08:05:10.710Z,101253.02
2023-05-14T08:07:39.768Z,101253.65
2023-05-14T08:10:09.606Z,101256.95
2023-05-14T08:12:39.257Z,101255.39
2023-05-14T08:15:09.694Z,101248.27
2023-05-14T08:17:38.585Z,101251.31
2023-05-14T08:20:10.347Z,101251.15
2023-05-14T08:22:39.545Z,101250.29
2023-05-14T08:25:08.832Z,101249.31
2023-05-14T08:27:37.830Z,101247.80
2023-05-14T08:30:07.751Z,101247.79
2023-05-14T08:32:38.806Z,101245.50
2023-05-14T08:35:08.597Z,101243.64
2023-05-14T08:37:37.677Z,101238.62
2023-05-14T08:40:08.854Z,101240.52
2023-05-14T08:42:43.386Z,101237.02
2023-05-14T08:45:19.966Z,101240.39
2023-05-14T08:47:51.697Z,101241.73
2023-05-14T08:50:22.977Z,101238.30
2023-05-14T08:52:53.577Z,101232.94
2023-05-14T08:55:22.913Z,101234.20
2023-05-14T08:57:51.895Z,101225.99
2023-05-14T09:00:21.473Z,101228.05
2023-05-14T09:02:51.909Z,101221.29
2023-05-14T09:05:22.441Z,101218.38
2023-05-14T09:07:51.396Z,101214.88
2023-05-14T09:10:22.833Z,101209.10
2023-05-14T09:12:52.156Z,101204.02
2023-05-14T09:15:21.388Z,101213.17
2023-05-14T09:17:50.795Z,101206.67
2023-05-14T09:20:20.245Z,101200.20
2023-05-14T09:22:54.732Z,101202.98
2023-05-14T09:25:28.697Z,101202.21
2023-05-14T09:27:59.032Z,101199.42
2023-05-14T09:30:28.486Z,101199.55
2023-05-14T09:32:57.885Z,101188.16
2023-05-14T09:35:26.822Z,101186.55
2023-05-14T09:37:56.004Z,101184.27
2023-05-14T09:40:25.259Z,101180.60
2023-05-14T09:42:55.333Z,101181.52
2023-05-14T09:45:24.690Z,101170.70
2023-05-14T09:47:54.212Z,101167.46
2023-05-14T09:50:23.617Z,101170.42
2023-05-14T09:52:55.837Z,101169.27
2023-05-14T09:55:26.533Z,101166.66
2023-05-14T09:57:55.684Z,101163.25
2023-05-14T10:00:25.252Z,101161.44
2023-05-14T10:02:55.397Z,101156.55
2023-05-14T10:05:25.177Z,101153.15
2023-05-14T10:07:59.354Z,101155.09
2023-05-14T10:10:30.663Z,101155.86
2023-05-14T10:13:08.131Z,101154.26
2023-05-14T10:15:47.460Z,101142.26
2023-05-14T10:18:24.926Z,101135.98
2023-05-14T10:21:04.775Z,101132.61
2023-05-14T10:23:38.155Z,101132.30
2023-05-14T10:26:08.785Z,101131.59
2023-05-14T10:28:38.047Z,101121.98
2023-05-14T10:31:10.960Z,101119.67
2023-05-14T10:33:51.298Z,101117.23
2023-05-14T10:36:21.114Z,101125.02
2023-05-14T10:38:57.369Z,101122.13
2023-05-14T10:41:27.045Z,101119.13
2023-05-14T10:43:58.234Z,101119.55
2023-05-14T10:46:27.688Z,101119.07
2023-05-14T10:48:57.350Z,101119.83
2023-05-14T10:51:26.911Z,101111.36
2023-05-14T10:53:57.180Z,101108.23
2023-05-14T10:56:26.389Z,101106.65
2023-05-14T10:59:00.500Z,101106.46
2023-05-14T11:01:29.599Z,101106.38
2023-05-14T11:03:59.044Z,101103.31
2023-05-14T11:06:28.532Z,101105.66
2023-05-14T11:08:59.268Z,101109.47
2023-05-14T11:11:28.924Z,101110.20
2023-05-14T11:13:58.529Z,101106.01
2023-05-14T11:16:30.985Z,101103.27
2023-05-14T11:19:07.712Z,101104.09
2023-05-14T11:21:37.275Z,101106.40
2023-05-14T11:24:07.583Z,101098.59
2023-05-14T11:26:36.798Z,101106.52
2023-05-14T11:29:05.856Z,101098.61
2023-05-14T11:31:35.995Z,101099.93
2023-05-14T11:34:10.638Z,101106.08
2023-05-14T11:36:40.200Z,101099.68
2023-05-14T11:39:10.181Z,101097.08
2023-05-14T11:41:46.216Z,101090.53
2023-05-14T11:44:15.298Z,101089.14
2023-05-14T11:46:55.811Z,101084.42
2023-05-14T11:49:26.140Z,101082.30
2023-05-14T11:52:00.529Z,101082.27
2023-05-14T11:54:30.808Z,101078.05
2023-05-14T11:57:16.534Z,101067.26
2023-05-14T11:59:46.152Z,101062.38
2023-05-14T12:02:19.963Z,101057.63
2023-05-14T12:04:54.053Z,101055.52
2023-05-14T12:07:23.083Z,101049.60
2023-05-14T12:09:52.094Z,101050.30
2023-05-14T12:12:23.502Z,101047.98
2023-05-14T12:14:53.468Z,101044.39
2023-05-14T12:17:24.270Z,101039.39
2023-05-14T12:19:53.598Z,101035.12
2023-05-14T12:22:23.680Z,101029.04
2023-05-14T12:24:58.656Z,101027.19
2023-05-14T12:27:29.930Z,101020.26
2023-05-14T12:32:41.820Z,101016.95
2023-05-14T12:35:11.135Z,101007.80
2023-05-14T12:37:40.811Z,101003.94
2023-05-14T12:40:10.551Z,101000.52
2023-05-14T12:42:39.551Z,101000.02
2023-05-14T12:45:09.269Z,100993.89
2023-05-14T12:47:38.551Z,100992.44
2023-05-14T12:50:08.669Z,100989.21
2023-05-14T12:52:39.729Z,100981.59
2023-05-14T12:55:10.261Z,100981.48
2023-05-14T12:57:39.853Z,100976.88
2023-05-14T13:00:13.897Z,100972.16
2023-05-14T13:02:44.147Z,100967.64
2023-05-14T13:05:13.493Z,100969.83
2023-05-14T13:07:42.797Z,100972.80
2023-05-14T13:10:12.226Z,100966.02
2023-05-14T13:12:42.113Z,100951.41
2023-05-14T13:15:12.347Z,100947.02
2023-05-14T13:17:41.815Z,100950.64
2023-05-14T13:20:11.553Z,100953.94
2023-05-14T13:22:40.919Z,100945.21
2023-05-14T13:25:10.965Z,100951.04
2023-05-14T13:27:39.911Z,100950.30
2023-05-14T13:30:09.656Z,100952.04
2023-05-14T13:32:40.746Z,100949.79
2023-05-14T13:35:12.041Z,100949.00
2023-05-14T13:37:43.479Z,100944.84
2023-05-14T13:40:13.315Z,100946.28
2023-05-14T13:42:43.106Z,100937.98
2023-05-14T13:45:13.403Z,100945.60
2023-05-14T13:47:42.624Z,100945.29
2023-05-14T13:50:11.854Z,100947.05
2023-05-14T13:52:40.934Z,100946.89
2023-05-14T13:55:10.383Z,100945.27
2023-05-14T13:57:41.918Z,100952.79
2023-05-14T14:00:12.024Z,100954.78
2023-05-14T14:02:41.315Z,100949.39
2023-05-14T14:05:10.661Z,100948.41
2023-05-14T14:07:40.897Z,100945.32
2023-05-14T14:10:10.704Z,100935.89
2023-05-14T14:12:39.778Z,100930.08
2023-05-14T14:15:09.357Z,100935.81
2023-05-14T14:17:39.579Z,100934.45
2023-05-14T14:20:10.726Z,100929.83
2023-05-14T14:22:43.428Z,100925.84
2023-05-14T14:25:13.653Z,100923.96
2023-05-14T14:27:42.685Z,100927.60
2023-05-14T14:30:15.848Z,100928.73
2023-05-14T14:32:46.494Z,100930.78
2023-05-14T14:35:18.747Z,100925.80
2023-05-14T14:37:53.569Z,100929.22
2023-05-14T14:40:24.236Z,100920.08
2023-05-14T14:42:53.646Z,100926.92
2023-05-14T14:45:23.603Z,100926.56
2023-05-14T14:48:12.808Z,100923.16
2023-05-14T14:50:41.979Z,100914.80
2023-05-14T14:53:11.149Z,100912.17
2023-05-14T14:55:40.596Z,100911.02
2023-05-14T14:58:10.002Z,100910.02
2023-05-14T15:00:40.510Z,100905.72
2023-05-14T15:03:10.653Z,100902.83
2023-05-14T15:05:40.156Z,100902.58
2023-05-14T15:08:09.501Z,100902.08
2023-05-14T15:10:39.185Z,100902.08
2023-05-14T15:13:09.419Z,100892.87
2023-05-14T15:15:38.810Z,100889.52
2023-05-14T15:18:07.875Z,100887.77
2023-05-14T15:20:37.594Z,100881.70
2023-05-14T15:23:07.045Z,100880.98
2023-05-14T15:25:36.785Z,100882.02
2023-05-14T15:28:09.168Z,100877.29
2023-05-14T15:30:38.486Z,100874.40
2023-05-14T15:33:11.037Z,100869.69
2023-05-14T15:35:40.473Z,100864.42
2023-05-14T15:38:09.794Z,100863.81
2023-05-14T15:40:38.720Z,100860.27
2023-05-14T15:43:08.273Z,100851.61
2023-05-14T15:45:37.297Z,100847.22
2023-05-14T15:48:07.139Z,100848.92
2023-05-14T15:50:36.438Z,100849.02
2023-05-14T15:53:05.940Z,100847.83
2023-05-14T15:55:35.570Z,100845.14
2023-05-14T15:58:04.791Z,100835.82
2023-05-14T16:00:35.490Z,100837.69
2023-05-14T16:03:05.523Z,100828.25
2023-05-14T16:05:34.858Z,100830.06
2023-05-14T16:08:04.111Z,100828.44
2023-05-14T16:10:33.234Z,100829.78
2023-05-14T16:13:02.468Z,100830.59
2023-05-14T16:15:31.831Z,100826.77
2023-05-14T16:18:01.493Z,100829.88
2023-05-14T16:20:30.945Z,100831.75
2023-05-14T16:23:00.286Z,100827.86
2023-05-14T16:25:31.662Z,100828.48
2023-05-14T16:28:01.633Z,100827.40
2023-05-14T16:30:30.827Z,100822.16
2023-05-14T16:33:00.558Z,100819.38
2023-05-14T16:35:30.068Z,100819.88
2023-05-14T16:38:00.180Z,100821.52
2023-05-14T16:40:29.701Z,100821.80
2023-05-14T16:42:59.164Z,100820.95
2023-05-14T16:45:28.645Z,100821.61
2023-05-14T16:47:57.982Z,100817.16
2023-05-14T16:50:28.588Z,100816.81
2023-05-14T16:52:58.055Z,100819.27
2023-05-14T16:55:27.520Z,100818.59
2023-05-14T16:57:56.801Z,100829.77
2023-05-14T17:00:26.700Z,100827.30
2023-05-14T17:02:56.279Z,100827.63
2023-05-14T17:05:25.979Z,100829.72
2023-05-14T17:07:55.787Z,100825.95
2023-05-14T17:10:26.795Z,100828.51
2023-05-14T17:12:56.121Z,100825.81
2023-05-14T17:15:42.886Z,100825.49
2023-05-14T17:18:12.250Z,100833.60
2023-05-14T17:20:41.497Z,100843.14
2023-05-14T17:23:10.717Z,100847.64
2023-05-14T17:25:40.229Z,100845.34
2023-05-14T17:28:09.393Z,100851.42
2023-05-14T17:30:38.587Z,100855.35
2023-05-14T17:33:08.396Z,100859.30
2023-05-14T17:35:37.787Z,100870.56
2023-05-14T17:38:07.366Z,100867.70
2023-05-14T17:40:36.772Z,100865.63
2023-05-14T17:43:06.456Z,100866.84
2023-05-14T17:45:46.332Z,100872.35
2023-05-14T17:48:24.302Z,100866.80
2023-05-14T17:50:53.870Z,100872.54
2023-05-14T17:53:23.050Z,100882.33
2023-05-14T17:55:52.197Z,100892.23
2023-05-14T17:58:21.599Z,100898.62
2023-05-14T18:00:51.369Z,100904.08
2023-05-14T18:03:21.448Z,100906.19
2023-05-14T18:05:51.693Z,100897.34
2023-05-14T18:08:20.719Z,100896.30
2023-05-14T18:10:49.792Z,100890.07
2023-05-14T18:13:19.133Z,100890.44
2023-05-14T18:15:48.833Z,100886.28
2023-05-14T18:18:19.005Z,100885.23
2023-05-14T18:20:49.706Z,100878.27
2023-05-14T18:23:20.102Z,100874.35
2023-05-14T18:25:49.610Z,100864.91
2023-05-14T18:28:19.445Z,100867.70
2023-05-14T18:30:49.970Z,100867.77
2023-05-14T18:33:19.083Z,100870.08
2023-05-14T18:35:48.291Z,100865.79
2023-05-14T18:38:19.864Z,100858.73
2023-05-14T18:40:49.715Z,100850.45
2023-05-14T18:43:20.221Z,100844.89
2023-05-14T18:45:49.994Z,100845.48
2023-05-14T18:48:19.701Z,100843.73
2023-05-14T18:50:49.395Z,100849.36
2023-05-14T18:53:18.852Z,100850.00
2023-05-14T18:55:49.387Z,100855.64
2023-05-14T18:58:18.698Z,100860.10
2023-05-14T19:00:48.004Z,100864.44
2023-05-14T19:03:17.834Z,100868.12
2023-05-14T19:05:47.429Z,100871.64
2023-05-14T19:08:17.148Z,100874.27
2023-05-14T19:10:46.705Z,100873.55
2023-05-14T19:13:18.822Z,100868.06
2023-05-14T19:15:48.186Z,100871.98
2023-05-14T19:18:17.977Z,100868.11
2023-05-14T19:20:47.206Z,100871.89
2023-05-14T19:23:16.413Z,100872.58
2023-05-14T19:25:45.591Z,100872.69
2023-05-14T19:28:15.738Z,100871.19
2023-05-14T19:30:44.895Z,100873.10
2023-05-14T19:33:13.961Z,100875.43
2023-05-14T19:35:43.311Z,100877.48
2023-05-14T19:38:12.301Z,100876.13
2023-05-14T19:40:43.653Z,100876.86
2023-05-14T19:43:14.166Z,100878.42
2023-05-14T19:45:43.544Z,100875.71
2023-05-14T19:48:13.943Z,100875.97
2023-05-14T19:50:43.393Z,100869.00
2023-05-14T19:53:12.385Z,100875.39
2023-05-14T19:55:41.911Z,100875.50
2023-05-14T19:58:11.430Z,100874.82
2023-05-14T20:00:40.240Z,100868.19
2023-05-14T20:03:10.604Z,100867.61
2023-05-14T20:05:40.053Z,100863.78
2023-05-14T20:08:09.610Z,100860.80
2023-05-14T20:10:39.246Z,100863.10
2023-05-14T20:13:08.880Z,100857.48
2023-05-14T20:15:39.524Z,100851.01
2023-05-14T20:18:09.097Z,100848.21
2023-05-14T20:20:39.792Z,100851.16
2023-05-14T20:23:09.633Z,100846.04
2023-05-14T20:25:38.645Z,100842.61
2023-05-14T20:28:07.832Z,100839.23
2023-05-14T20:30:37.563Z,100824.12
2023-05-14T20:33:07.064Z,100821.73
2023-05-14T20:35:36.355Z,100818.96
2023-05-14T20:38:05.532Z,100817.77
2023-05-14T20:40:34.744Z,100813.38
2023-05-14T20:43:03.943Z,100808.23
2023-05-14T20:45:33.347Z,100806.41
2023-05-14T20:48:02.659Z,100799.91
2023-05-14T20:50:31.892Z,100801.06
2023-05-14T20:53:01.285Z,100801.22
2023-05-14T20:55:30.614Z,100797.54
2023-05-14T20:57:59.738Z,100788.11
2023-05-14T21:00:29.076Z,100791.63
2023-05-14T21:02:59.871Z,100789.00
2023-05-14T21:05:29.668Z,100783.11
2023-05-14T21:07:58.940Z,100777.84
2023-05-14T21:10:28.236Z,100779.48
2023-05-14T21:12:57.690Z,100778.45
2023-05-14T21:15:27.620Z,100788.89
2023-05-14T21:17:56.902Z,100796.96
2023-05-14T21:20:26.454Z,100796.74
2023-05-14T21:22:55.952Z,100793.85
2023-05-14T21:25:25.578Z,100793.42
2023-05-14T21:27:54.999Z,100795.46
2023-05-14T21:30:24.060Z,100789.41
2023-05-14T21:32:53.650Z,100788.95
2023-05-14T21:35:23.316Z,100784.92
2023-05-14T21:37:52.875Z,100779.88
2023-05-14T21:40:22.061Z,100779.14
2023-05-14T21:42:51.343Z,100776.63
2023-05-14T21:45:22.863Z,100776.97
2023-05-14T21:47:52.968Z,100780.05
2023-05-14T21:50:22.472Z,100781.62
2023-05-14T21:52:51.747Z,100782.05
2023-05-14T21:55:20.855Z,100782.48
2023-05-14T21:57:50.267Z,100784.77
2023-05-14T22:00:23.603Z,100780.39
2023-05-14T22:02:53.775Z,100777.83
2023-05-14T22:05:23.365Z,100773.81
2023-05-14T22:07:52.971Z,100773.13
2023-05-14T22:10:22.259Z,100768.27
2023-05-14T22:12:51.373Z,100762.52
2023-05-14T22:15:20.549Z,100761.39
2023-05-14T22:17:50.107Z,100755.89
2023-05-14T22:20:19.641Z,100752.79
2023-05-14T22:22:48.976Z,100750.49
2023-05-14T22:25:18.638Z,100746.35
2023-05-14T22:27:48.003Z,100744.31
2023-05-14T22:30:17.167Z,100741.59
2023-05-14T22:32:46.363Z,100737.02
2023-05-14T22:35:15.923Z,100724.84
2023-05-14T22:37:45.097Z,100723.40
2023-05-14T22:40:14.922Z,100718.01
2023-05-14T22:42:44.097Z,100719.82
2023-05-14T22:45:13.363Z,100718.19
2023-05-14T22:47:42.651Z,100719.91
2023-05-14T22:50:12.013Z,100713.23
2023-05-14T22:52:41.978Z,100709.39
2023-05-14T22:55:11.721Z,100711.00
2023-05-14T22:57:41.163Z,100714.52
2023-05-14T23:00:11.714Z,100723.52
2023-05-14T23:02:40.931Z,100722.20
2023-05-14T23:05:10.328Z,100721.16
2023-05-14T23:07:39.982Z,100716.16
2023-05-14T23:10:09.800Z,100713.13
2023-05-14T23:12:39.210Z,100708.11
2023-05-14T23:15:08.898Z,100703.02
2023-05-14T23:17:39.295Z,100704.31
2023-05-14T23:20:13.484Z,100703.62
2023-05-14T23:22:42.647Z,100700.73
2023-05-14T23:25:11.742Z,100709.13
2023-05-14T23:27:41.482Z,100708.21
2023-05-14T23:30:11.386Z,100705.11
2023-05-14T23:32:40.613Z,100697.66
2023-05-14T23:35:10.996Z,100700.62
2023-05-14T23:37:47.489Z,100697.89
2023-05-14T23:40:17.430Z,100702.52
2023-05-14T23:42:46.785Z,100699.63
2023-05-14T23:45:16.096Z,100702.16
2023-05-14T23:47:45.449Z,100704.35
2023-05-14T23:50:14.444Z,100709.66
2023-05-14T23:52:43.988Z,100700.83
2023-05-14T23:55:13.808Z,100701.35
2023-05-14T23:57:42.892Z,100700.91
